Abingdon, MD

9:53 AM EDT on August 01, 2015 (GMT -0400)
Box Hill | | Change Station
CLOSE
Current Station
Personal Weather Station
Location: Abingdon, MD
Elevation: 130 ft
Nearby Weather Stations

Elev 130 ft 39.48 °N, 76.30 °W | Updated 6 seconds ago

Partly Cloudy
Partly Cloudy
76.8 °F
Feels Like 78 °F
N
1.0
Wind Variable Wind from WSW
Gusts 1.0 mph

Today
High -- | Low -- °F
--% Chance of Precip.
Yesterday
High -- | Low -- °F
Precip. -- in
6:04 AM 8:17 PM
Full, 98% visible
Pressure 29.89 in
Visibility 10.0 miles
Clouds Mostly Cloudy 10000 ft
Heat Index 78 °F
Dew Point 69 °F
Humidity 76%
Rainfall 0.00 in
Snow Depth Not available.
UV 3 out of 12
Pollen 6.60 out of 12
Air Quality Not available.
Flu Activity Not available.
METAR KMTN 011345Z 25004KT 10SM BKN100 27/18 A2989

More Conditions Fewer Conditions

Pressure 29.89 in
Visibility 10.0 miles
Clouds Mostly Cloudy 10000 ft
Heat Index 78 °F
Dew Point 69 °F
Humidity 76%
Rainfall 0.00 in
Snow Depth Not available.
UV 3 out of 12
Pollen 6.60 out of 12
Air Quality Not available.
Flu Activity Not available.
METAR KMTN 011345Z 25004KT 10SM BKN100 27/18 A2989

More Conditions Fewer Conditions

10-Day Weather Forecast

×

Almanac

Astronomy

Aug. 01, 2015 Rise Set
Actual Time
Civil Twilight
Nautical Twilight
Astronomical Twilight
Moon
Length of Visible Light
Length of Day
Tomorrow will be .
, % of the Moon is Illuminated

Today's Extremes

State Highs State Lows

Community

WunderPhotos

Upload Photos

1,842,940 photos uploaded!

WunderBlogs® & News

Nearby

Air Quality

  Air Quality AQ Index Pollutant
Not available.

Snow Depth

Station Depth Elevation

Earthquake Activity

City Distance Mag. Time & Date
Minimum magnitude displayed is 2.5.

Coastal Water Temperatures

Place Temperature

Stations

Nearby Weather Stations

Station Location Temp. Windchill Dew Point Humidity Wind Precip. Elev Updated Type